createdAt,value
2023-04-15T00:02:47.077Z,40.80
2023-04-15T00:13:10.432Z,52.42
2023-04-15T00:23:32.294Z,34.20
2023-04-15T00:33:58.597Z,49.40
2023-04-15T00:44:23.138Z,57.85
2023-04-15T00:54:46.452Z,37.45
2023-04-15T01:05:08.588Z,60.78
2023-04-15T01:15:32.388Z,60.70
2023-04-15T01:25:55.673Z,67.82
2023-04-15T01:36:17.466Z,61.83
2023-04-15T01:46:41.694Z,55.95
2023-04-15T01:57:03.893Z,70.60
2023-04-15T02:07:28.895Z,40.60
2023-04-15T02:17:52.749Z,60.42
2023-04-15T02:28:16.415Z,54.40
2023-04-15T02:38:42.418Z,67.27
2023-04-15T02:49:10.954Z,65.82
2023-04-15T02:59:33.107Z,67.93
2023-04-15T03:10:00.947Z,48.38
2023-04-15T03:30:45.646Z,57.72
2023-04-15T03:41:07.911Z,45.60
2023-04-15T03:51:31.385Z,69.78
2023-04-15T04:01:53.348Z,56.90
2023-04-15T04:12:16.870Z,51.38
2023-04-15T04:22:39.937Z,69.72
2023-04-15T04:33:03.742Z,49.75
2023-04-15T04:43:25.526Z,46.88
2023-04-15T04:53:48.770Z,46.03
2023-04-15T05:04:11.427Z,51.72
2023-04-15T05:14:36.206Z,39.33
2023-04-15T05:24:58.028Z,42.75
2023-04-15T05:35:21.060Z,30.40
2023-04-15T05:45:44.832Z,24.52
2023-04-15T05:56:08.126Z,28.73
2023-04-15T06:06:33.652Z,21.38
2023-04-15T06:16:58.015Z,22.20
2023-04-15T06:27:21.294Z,21.25
2023-04-15T06:37:44.546Z,21.17
2023-04-15T06:48:06.963Z,21.67
2023-04-15T06:58:32.757Z,25.80
2023-04-15T07:08:55.696Z,18.45
2023-04-15T07:19:20.476Z,21.50
2023-04-15T07:29:42.301Z,21.70
2023-04-15T07:40:07.259Z,26.27
2023-04-15T07:50:32.284Z,22.63
2023-04-15T08:00:55.824Z,22.33
2023-04-15T08:11:19.124Z,24.35
2023-04-15T08:21:42.373Z,26.23
2023-04-15T08:32:04.009Z,26.88
2023-04-15T08:42:33.445Z,21.48
2023-04-15T08:52:58.914Z,24.35
2023-04-15T09:03:23.677Z,22.40
2023-04-15T09:13:45.657Z,21.55
2023-04-15T09:24:09.139Z,17.83
2023-04-15T09:34:36.963Z,24.67
2023-04-15T09:45:11.681Z,23.23
2023-04-15T09:55:34.858Z,25.13
2023-04-15T10:05:59.598Z,22.52
2023-04-15T10:16:23.091Z,26.10
2023-04-15T10:26:46.903Z,20.27
2023-04-15T10:37:11.104Z,21.15
2023-04-15T10:47:34.152Z,17.70
2023-04-15T10:58:00.891Z,21.38
2023-04-15T11:08:58.663Z,21.25
2023-04-15T11:19:20.695Z,19.90
2023-04-15T11:29:44.279Z,21.60
2023-04-15T11:40:10.055Z,20.65
2023-04-15T11:50:34.089Z,28.37
2023-04-15T12:00:58.795Z,17.55
2023-04-15T12:11:22.668Z,19.70
2023-04-15T12:21:47.809Z,19.20
2023-04-15T12:32:12.272Z,18.87
2023-04-15T12:42:34.461Z,16.92
2023-04-15T12:52:57.838Z,16.55
2023-04-15T13:03:19.657Z,19.40
2023-04-15T13:13:44.906Z,13.73
2023-04-15T13:24:08.131Z,16.40
2023-04-15T13:34:31.734Z,13.48
2023-04-15T13:44:58.065Z,18.65
2023-04-15T13:55:23.730Z,16.85
2023-04-15T14:05:47.172Z,13.98
2023-04-15T14:16:17.249Z,15.05
2023-04-15T14:26:45.127Z,15.50
2023-04-15T14:37:10.125Z,15.90
2023-04-15T14:47:32.651Z,19.55
2023-04-15T14:57:55.674Z,14.23
2023-04-15T15:08:17.472Z,17.35
2023-04-15T15:18:40.839Z,20.35
2023-04-15T15:29:05.053Z,19.65
2023-04-15T15:39:28.962Z,19.63
2023-04-15T15:49:51.436Z,17.00
2023-04-15T16:00:15.918Z,14.73
2023-04-15T16:10:40.904Z,17.10
2023-04-15T16:21:05.303Z,14.93
2023-04-15T16:31:27.097Z,11.70
2023-04-15T16:41:50.140Z,16.02
2023-04-15T16:52:11.909Z,16.50
2023-04-15T17:02:38.597Z,16.42
2023-04-15T17:13:03.437Z,10.55
2023-04-15T17:23:28.992Z,12.63
2023-04-15T17:34:00.523Z,8.18
2023-04-15T17:44:32.770Z,11.65
2023-04-15T17:54:55.884Z,12.20
2023-04-15T18:05:19.991Z,18.63
2023-04-15T18:15:46.874Z,10.40
2023-04-15T18:26:11.982Z,15.20
2023-04-15T18:36:34.692Z,16.92
2023-04-15T18:46:57.935Z,17.20
2023-04-15T18:57:23.354Z,14.63
2023-04-15T19:07:53.609Z,19.75
2023-04-15T19:30:10.489Z,14.40
2023-04-15T19:40:32.370Z,18.23
2023-04-15T19:50:55.199Z,10.63
2023-04-15T20:01:16.977Z,14.90
2023-04-15T20:12:45.969Z,13.10
2023-04-15T20:22:26.612Z,15.32
2023-04-15T20:32:51.676Z,14.95
2023-04-15T20:43:13.368Z,17.10
2023-04-15T20:53:36.339Z,17.50
2023-04-15T21:03:58.022Z,24.52
2023-04-15T21:14:33.836Z,25.00
2023-04-15T21:24:57.059Z,29.50
2023-04-15T21:35:20.274Z,29.70
2023-04-15T21:45:44.365Z,25.77
2023-04-15T21:56:30.296Z,25.80
2023-04-15T22:06:55.695Z,23.73
2023-04-15T22:17:19.136Z,31.60
2023-04-15T22:27:41.172Z,29.00
2023-04-15T22:38:06.241Z,29.25
2023-04-15T22:48:29.592Z,30.65
2023-04-15T22:58:53.333Z,33.22
2023-04-15T23:09:14.856Z,28.30
2023-04-15T23:19:38.312Z,29.63
2023-04-15T23:30:02.866Z,20.80
2023-04-15T23:40:26.264Z,31.17
2023-04-15T23:50:48.014Z,24.23
